createdAt,value
2022-09-23T00:01:03.130Z,0.90
2022-09-23T00:06:08.508Z,1.10
2022-09-23T00:11:13.746Z,1.10
2022-09-23T00:16:24.269Z,1.10
2022-09-23T00:21:27.884Z,0.95
2022-09-23T00:26:31.162Z,1.05
2022-09-23T00:31:35.683Z,1.30
2022-09-23T00:36:38.881Z,1.20
2022-09-23T00:41:42.072Z,0.93
2022-09-23T00:46:46.681Z,1.20
2022-09-23T00:51:56.151Z,0.80
2022-09-23T00:57:00.646Z,1.00
2022-09-23T01:02:07.060Z,1.08
2022-09-23T01:07:10.333Z,1.13
2022-09-23T01:12:28.206Z,1.00
2022-09-23T01:17:40.714Z,1.30
2022-09-23T01:22:49.969Z,0.80
2022-09-23T01:28:08.701Z,0.80
2022-09-23T01:33:20.695Z,1.00
2022-09-23T01:38:33.586Z,0.63
2022-09-23T01:43:43.185Z,1.38
2022-09-23T01:48:53.676Z,1.58
2022-09-23T01:54:04.595Z,1.00
2022-09-23T01:59:13.095Z,1.00
2022-09-23T02:04:22.411Z,0.80
2022-09-23T02:09:31.440Z,0.70
2022-09-23T02:14:40.032Z,0.80
2022-09-23T02:19:47.967Z,1.20
2022-09-23T02:24:51.281Z,1.00
2022-09-23T02:30:01.264Z,0.90
2022-09-23T02:35:14.331Z,1.00
2022-09-23T02:40:23.870Z,0.70
2022-09-23T02:45:27.692Z,1.02
2022-09-23T02:50:33.504Z,0.80
2022-09-23T02:55:36.904Z,0.80
2022-09-23T03:00:50.240Z,0.90
2022-09-23T03:05:59.103Z,1.08
2022-09-23T03:11:07.603Z,0.88
2022-09-23T03:16:18.177Z,0.90
2022-09-23T03:21:28.908Z,0.80
2022-09-23T03:26:36.168Z,0.85
2022-09-23T03:31:42.560Z,0.90
2022-09-23T03:36:54.025Z,0.70
2022-09-23T03:42:00.120Z,0.90
2022-09-23T03:47:03.826Z,0.82
2022-09-23T03:52:08.711Z,1.00
2022-09-23T03:57:12.884Z,1.00
2022-09-23T04:02:16.613Z,0.90
2022-09-23T04:07:21.294Z,1.23
2022-09-23T04:12:24.477Z,1.00
2022-09-23T04:17:27.988Z,0.90
2022-09-23T04:22:34.175Z,0.80
2022-09-23T04:27:38.960Z,1.00
2022-09-23T04:32:42.158Z,1.10
2022-09-23T04:37:48.999Z,1.00
2022-09-23T04:42:52.572Z,1.15
2022-09-23T04:47:58.489Z,0.95
2022-09-23T04:53:03.203Z,1.35
2022-09-23T04:58:06.671Z,1.10
2022-09-23T05:03:09.821Z,1.20
2022-09-23T05:08:14.320Z,1.30
2022-09-23T05:13:17.596Z,1.40
2022-09-23T05:18:20.961Z,1.30
2022-09-23T05:23:25.798Z,1.33
2022-09-23T05:28:30.019Z,1.23
2022-09-23T05:33:33.521Z,1.10
2022-09-23T05:38:38.723Z,2.38
2022-09-23T05:43:42.258Z,1.08
2022-09-23T05:48:47.291Z,1.30
2022-09-23T05:53:52.982Z,1.38
2022-09-23T05:58:58.029Z,1.38
2022-09-23T06:04:02.623Z,1.45
2022-09-23T06:09:10.019Z,1.58
2022-09-23T06:14:15.060Z,1.33
2022-09-23T06:19:18.631Z,1.35
2022-09-23T06:24:28.571Z,1.77
2022-09-23T06:29:34.080Z,1.80
2022-09-23T06:34:48.105Z,1.95
2022-09-23T06:39:55.259Z,1.85
2022-09-23T06:45:00.202Z,1.67
2022-09-23T06:50:03.750Z,1.77
2022-09-23T06:55:10.198Z,2.20
2022-09-23T07:00:15.216Z,2.00
2022-09-23T07:05:18.931Z,1.73
2022-09-23T07:10:23.543Z,2.03
2022-09-23T07:15:26.814Z,1.95
2022-09-23T07:20:30.028Z,1.85
2022-09-23T07:25:34.991Z,2.50
2022-09-23T07:30:40.322Z,1.90
2022-09-23T07:35:44.688Z,2.42
2022-09-23T07:40:49.648Z,2.20
2022-09-23T07:45:55.605Z,2.17
2022-09-23T07:51:00.816Z,2.08
2022-09-23T07:56:07.417Z,1.70
2022-09-23T08:01:12.536Z,1.85
2022-09-23T08:06:15.936Z,1.42
2022-09-23T08:11:20.925Z,1.35
2022-09-23T08:16:24.657Z,1.70
2022-09-23T08:21:28.131Z,1.60
2022-09-23T08:26:34.365Z,1.48
2022-09-23T08:31:37.804Z,1.58
2022-09-23T08:36:41.401Z,1.33
2022-09-23T08:41:58.512Z,1.30
2022-09-23T08:47:12.107Z,1.05
2022-09-23T08:52:21.431Z,1.50
2022-09-23T08:57:36.067Z,1.38
2022-09-23T09:02:39.279Z,1.50
2022-09-23T09:07:43.273Z,1.65
2022-09-23T09:12:50.879Z,1.70
2022-09-23T09:18:01.319Z,1.70
2022-09-23T09:23:14.791Z,1.58
2022-09-23T09:28:24.695Z,1.63
2022-09-23T09:33:32.365Z,1.25
2022-09-23T09:38:36.141Z,1.80
2022-09-23T09:43:44.196Z,1.20
2022-09-23T09:48:53.765Z,1.67
2022-09-23T09:54:16.294Z,1.58
2022-09-23T09:59:26.670Z,1.50
2022-09-23T10:04:36.104Z,1.55
2022-09-23T10:09:41.240Z,1.33
2022-09-23T10:14:47.136Z,1.63
2022-09-23T10:20:00.403Z,1.17
2022-09-23T10:25:08.608Z,1.23
2022-09-23T10:30:23.157Z,1.23
2022-09-23T10:35:28.283Z,1.15
2022-09-23T10:40:51.093Z,1.27
2022-09-23T10:46:20.976Z,1.08
2022-09-23T10:51:33.367Z,1.30
2022-09-23T10:56:41.000Z,1.35
2022-09-23T11:01:53.069Z,1.15
2022-09-23T11:07:14.399Z,1.05
2022-09-23T11:12:31.310Z,1.00
2022-09-23T11:18:05.683Z,1.48
2022-09-23T11:23:33.438Z,0.82
2022-09-23T11:29:06.345Z,0.90
2022-09-23T11:34:28.466Z,0.95
2022-09-23T11:39:39.071Z,0.88
2022-09-23T11:44:48.542Z,1.17
2022-09-23T11:49:57.309Z,0.85
2022-09-23T11:55:18.996Z,0.80
2022-09-23T12:00:26.660Z,0.70
2022-09-23T12:05:35.768Z,0.73
2022-09-23T12:10:57.601Z,0.95
2022-09-23T12:16:26.160Z,0.75
2022-09-23T12:21:50.587Z,0.80
2022-09-23T12:26:59.066Z,0.70
2022-09-23T12:32:10.215Z,0.68
2022-09-23T12:37:15.063Z,0.90
2022-09-23T12:42:21.686Z,0.70
2022-09-23T12:47:41.221Z,0.88
2022-09-23T12:52:45.818Z,0.68
2022-09-23T12:57:49.354Z,0.70
2022-09-23T13:03:15.911Z,0.70
2022-09-23T13:08:24.759Z,0.50
2022-09-23T13:13:31.776Z,0.70
2022-09-23T13:18:59.684Z,0.70
2022-09-23T13:24:21.682Z,0.93
2022-09-23T13:29:28.403Z,0.80
2022-09-23T13:34:34.824Z,0.90
2022-09-23T13:39:39.437Z,0.88
2022-09-23T13:44:42.687Z,0.90
2022-09-23T13:49:48.082Z,0.80
2022-09-23T13:54:53.325Z,0.70
2022-09-23T14:00:01.674Z,0.95
2022-09-23T14:05:12.534Z,0.85
2022-09-23T14:10:21.002Z,0.90
2022-09-23T14:15:24.492Z,0.75
2022-09-23T14:20:27.811Z,0.80
2022-09-23T14:25:32.705Z,0.60
2022-09-23T14:30:38.506Z,1.00
2022-09-23T14:35:44.751Z,0.90
2022-09-23T14:41:15.553Z,0.80
2022-09-23T14:46:20.992Z,0.68
2022-09-23T14:51:36.368Z,1.02
2022-09-23T14:56:44.832Z,0.75
2022-09-23T15:01:48.041Z,0.77
2022-09-23T15:06:54.325Z,0.68
2022-09-23T15:12:06.249Z,1.00
2022-09-23T15:17:19.356Z,0.77
2022-09-23T15:22:23.159Z,1.00
2022-09-23T15:27:32.554Z,1.25
2022-09-23T15:32:35.778Z,0.98
2022-09-23T15:37:39.357Z,0.80
2022-09-23T15:42:51.629Z,0.80
2022-09-23T15:47:55.840Z,1.05
2022-09-23T15:52:59.570Z,0.98
2022-09-23T15:58:04.537Z,0.90
2022-09-23T16:03:07.744Z,1.02
2022-09-23T16:08:11.887Z,0.90
2022-09-23T16:13:16.789Z,1.48
2022-09-23T16:18:20.304Z,1.02
2022-09-23T16:23:34.620Z,0.80
2022-09-23T16:28:39.361Z,0.95
2022-09-23T16:33:42.602Z,0.80
2022-09-23T16:38:47.385Z,0.82
2022-09-23T16:43:52.354Z,1.17
2022-09-23T16:48:56.274Z,1.10
2022-09-23T16:54:00.521Z,1.23
2022-09-23T16:59:05.498Z,1.58
2022-09-23T17:04:10.721Z,1.23
2022-09-23T17:09:14.057Z,1.98
2022-09-23T17:14:19.153Z,1.77
2022-09-23T17:19:22.501Z,2.03
2022-09-23T17:24:25.673Z,2.13
2022-09-23T17:29:30.666Z,1.90
2022-09-23T17:34:34.990Z,1.55
2022-09-23T17:39:38.233Z,1.63
2022-09-23T17:44:42.836Z,1.45
2022-09-23T17:49:47.662Z,1.48
2022-09-23T17:54:50.921Z,1.50
2022-09-23T17:59:56.181Z,1.40
2022-09-23T18:04:59.448Z,1.33
2022-09-23T18:10:02.757Z,1.00
2022-09-23T18:15:07.917Z,1.35
2022-09-23T18:20:12.182Z,1.55
2022-09-23T18:25:35.429Z,1.58
2022-09-23T18:30:40.209Z,1.55
2022-09-23T18:35:43.503Z,1.50
2022-09-23T18:40:56.222Z,1.60
2022-09-23T18:46:02.899Z,1.42
2022-09-23T18:51:08.803Z,1.40
2022-09-23T18:56:14.662Z,1.33
2022-09-23T19:01:20.608Z,1.30
2022-09-23T19:06:24.502Z,1.70
2022-09-23T19:11:28.118Z,1.73
2022-09-23T19:16:32.905Z,1.85
2022-09-23T19:21:37.305Z,2.03
2022-09-23T19:26:41.836Z,2.55
2022-09-23T19:31:46.482Z,2.10
2022-09-23T19:36:49.792Z,1.73
2022-09-23T19:41:55.786Z,1.90
2022-09-23T19:47:00.494Z,1.73
2022-09-23T19:52:04.029Z,1.15
2022-09-23T19:57:07.231Z,1.23
2022-09-23T20:02:12.534Z,1.55
2022-09-23T20:07:16.306Z,1.30
2022-09-23T20:12:19.724Z,1.33
2022-09-23T20:17:24.326Z,2.00
2022-09-23T20:22:32.385Z,1.80
2022-09-23T20:27:36.615Z,1.70
2022-09-23T20:32:44.611Z,1.60
2022-09-23T20:37:48.227Z,1.90
2022-09-23T20:42:51.530Z,1.85
2022-09-23T20:47:59.814Z,2.05
2022-09-23T20:53:03.042Z,2.92
2022-09-23T20:58:06.246Z,3.08
2022-09-23T21:03:10.897Z,3.63
2022-09-23T21:08:14.112Z,3.60
2022-09-23T21:13:17.580Z,4.65
2022-09-23T21:18:24.375Z,4.72
2022-09-23T21:23:28.794Z,4.10
2022-09-23T21:28:33.130Z,5.00
2022-09-23T21:33:38.087Z,4.05
2022-09-23T21:38:41.395Z,3.72
2022-09-23T21:43:44.931Z,4.07
2022-09-23T21:48:53.408Z,3.72
2022-09-23T21:53:58.862Z,3.67
2022-09-23T21:59:02.227Z,3.13
2022-09-23T22:04:10.284Z,2.72
2022-09-23T22:09:15.703Z,2.75
2022-09-23T22:14:20.537Z,2.78
2022-09-23T22:19:26.856Z,2.70
2022-09-23T22:24:30.065Z,2.80
2022-09-23T22:29:50.836Z,2.17
2022-09-23T22:34:55.684Z,2.00
2022-09-23T22:39:58.949Z,2.33
2022-09-23T22:45:04.198Z,2.30
2022-09-23T22:50:10.341Z,2.30
2022-09-23T22:55:13.859Z,2.13
2022-09-23T23:00:17.098Z,1.95
2022-09-23T23:05:22.053Z,2.60
2022-09-23T23:10:27.297Z,2.30
2022-09-23T23:15:30.647Z,2.50
2022-09-23T23:20:35.445Z,2.13
2022-09-23T23:25:38.629Z,2.28
2022-09-23T23:30:41.902Z,2.17
2022-09-23T23:35:52.770Z,2.28
2022-09-23T23:40:56.496Z,2.60
2022-09-23T23:46:00.492Z,2.33
2022-09-23T23:51:07.531Z,2.03
2022-09-23T23:56:14.399Z,2.42
